Hanjin Santana — 3EYU3 — position and weather

sailwx.info

Track history (hours):
 
Tides and Currents Weather Stations Pressure Air Temp Water Temp Dewpoint Dewpoint Depression Visibility Wind Speed Wind Dir Waves Ship Positions

Hanjin Santana

Last reported at 2014-Sep-26 15:19 UTC. Time now 2014-Oct-01 06:08 UTC.
Position N 01°16' E 104°09'.

Length 196 m; draft 11.9 m.

Type: Cargo ship. MMSI: 373673000.

Date/timePositionNaut miles runAvg speedWind from/ knotsBaromVisibWave heightAir tempDewpointWater temp
2014-Sep-26 15:19N 01°16' E 104°09'7 8.6
2014-Sep-26 14:33N 01°15' E 104°03'6 5.5
2014-Sep-26 13:33N 01°16' E 103°57'1 0.6
2014-Sep-26 12:31N 01°16' E 103°57'0 0.2
2014-Sep-26 11:22N 01°16' E 103°57'0 0.0
2014-Sep-26 10:31N 01°16' E 103°57'0 0.0
2014-Sep-26 09:31N 01°16' E 103°57'0 0.0
2014-Sep-26 08:31N 01°16' E 103°57'0 0.1
2014-Sep-26 07:31N 01°16' E 103°57'0 0.1
2014-Sep-26 06:28N 01°16' E 103°57'0 0.2
2014-Sep-26 05:28N 01°16' E 103°57'0 0.1
2014-Sep-26 04:31N 01°16' E 103°57'0 0.0
2014-Sep-26 03:31N 01°16' E 103°57'0 0.0
2014-Sep-26 02:31N 01°16' E 103°57'0 0.1
2014-Sep-26 01:31N 01°16' E 103°57'1 1.2
2014-Sep-26 00:33N 01°15' E 103°57'5 5.0
2014-Sep-25 23:34N 01°12' E 103°54'8 8.2
2014-Sep-25 22:33N 01°08' E 103°46'8 7.9
2014-Sep-25 21:32N 01°03' E 103°40'8 8.4
2014-Sep-25 20:33N 01°07' E 103°32'1111.1
2014-Sep-25 19:32N 01°13' E 103°23'  
Track history (hours):
 
Tides and Currents Weather Stations Pressure Air Temp Water Temp Dewpoint Dewpoint Depression Visibility Wind Speed Wind Dir Waves Ship Positions

Hanjin Santana

Last reported at 2014-Sep-26 15:19 UTC. Time now 2014-Oct-01 06:08 UTC.
Position N 01°16' E 104°09'.

Length 196 m; draft 11.9 m.

Type: Cargo ship. MMSI: 373673000.

Date/timePositionNaut miles runAvg speedWind from/ knotsBaromVisibWave heightAir tempDewpointWater temp
2014-Sep-26 15:19N 01°16' E 104°09'7 8.6
2014-Sep-26 14:33N 01°15' E 104°03'6 5.5
2014-Sep-26 13:33N 01°16' E 103°57'1 0.6
2014-Sep-26 12:31N 01°16' E 103°57'0 0.2
2014-Sep-26 11:22N 01°16' E 103°57'0 0.0
2014-Sep-26 10:31N 01°16' E 103°57'0 0.0
2014-Sep-26 09:31N 01°16' E 103°57'0 0.0
2014-Sep-26 08:31N 01°16' E 103°57'0 0.1
2014-Sep-26 07:31N 01°16' E 103°57'0 0.1
2014-Sep-26 06:28N 01°16' E 103°57'0 0.2
2014-Sep-26 05:28N 01°16' E 103°57'0 0.1
2014-Sep-26 04:31N 01°16' E 103°57'0 0.0
2014-Sep-26 03:31N 01°16' E 103°57'0 0.0
2014-Sep-26 02:31N 01°16' E 103°57'0 0.1
2014-Sep-26 01:31N 01°16' E 103°57'1 1.2
2014-Sep-26 00:33N 01°15' E 103°57'5 5.0
2014-Sep-25 23:34N 01°12' E 103°54'8 8.2
2014-Sep-25 22:33N 01°08' E 103°46'8 7.9
2014-Sep-25 21:32N 01°03' E 103°40'8 8.4
2014-Sep-25 20:33N 01°07' E 103°32'1111.1
2014-Sep-25 19:32N 01°13' E 103°23'  

Dump ship's entire track history